createdAt,value
2018-02-03T00:00:34.861Z,39.97
2018-02-03T00:03:02.343Z,45.22
2018-02-03T00:05:29.930Z,40.58
2018-02-03T00:07:57.420Z,39.78
2018-02-03T00:10:25.309Z,40.97
2018-02-03T00:12:53.268Z,35.40
2018-02-03T00:15:20.764Z,34.45
2018-02-03T00:17:48.239Z,40.47
2018-02-03T00:20:15.735Z,32.03
2018-02-03T00:22:43.220Z,30.58
2018-02-03T00:25:10.719Z,30.50
2018-02-03T00:27:38.197Z,32.05
2018-02-03T00:30:06.173Z,34.90
2018-02-03T00:32:33.744Z,31.67
2018-02-03T00:35:01.248Z,27.25
2018-02-03T00:37:28.726Z,31.60
2018-02-03T00:39:56.224Z,26.02
2018-02-03T00:42:23.708Z,25.05
2018-02-03T00:44:51.209Z,30.00
2018-02-03T00:47:19.084Z,23.95
2018-02-03T00:49:46.984Z,29.50
2018-02-03T00:52:14.463Z,23.17
2018-02-03T00:54:41.972Z,23.25
2018-02-03T00:59:43.896Z,21.92
2018-02-03T01:02:11.375Z,23.40
2018-02-03T01:04:38.860Z,22.33
2018-02-03T01:07:06.364Z,25.37
2018-02-03T01:09:33.838Z,21.80
2018-02-03T01:12:01.352Z,19.55
2018-02-03T01:14:28.827Z,23.38
2018-02-03T01:16:56.722Z,21.23
2018-02-03T01:19:24.602Z,19.83
2018-02-03T01:21:52.589Z,24.20
2018-02-03T01:24:20.072Z,20.17
2018-02-03T01:26:47.613Z,20.60
2018-02-03T01:29:15.496Z,19.17
2018-02-03T01:31:43.439Z,23.58
2018-02-03T01:34:10.900Z,22.85
2018-02-03T01:36:38.391Z,19.35
2018-02-03T01:39:05.880Z,22.30
2018-02-03T01:41:33.380Z,21.58
2018-02-03T01:44:00.860Z,23.77
2018-02-03T01:46:28.356Z,20.37
2018-02-03T01:48:55.835Z,21.58
2018-02-03T01:51:23.340Z,17.05
2018-02-03T01:53:51.224Z,17.27
2018-02-03T01:56:19.128Z,20.85
2018-02-03T01:58:46.611Z,22.48
2018-02-03T02:01:14.121Z,22.55
2018-02-03T02:03:41.612Z,24.20
2018-02-03T02:06:09.510Z,27.00
2018-02-03T02:08:37.055Z,26.23
2018-02-03T02:11:04.547Z,27.30
2018-02-03T02:13:32.032Z,33.33
2018-02-03T02:15:59.536Z,33.75
2018-02-03T02:18:27.015Z,31.35
2018-02-03T02:20:54.587Z,32.83
2018-02-03T02:23:22.067Z,31.10
2018-02-03T02:25:49.553Z,29.00
2018-02-03T02:28:17.052Z,29.45
2018-02-03T02:30:44.586Z,29.73
2018-02-03T02:33:12.092Z,32.38
2018-02-03T02:35:39.571Z,34.33
2018-02-03T02:38:07.209Z,35.92
2018-02-03T02:40:34.692Z,31.37
2018-02-03T02:43:02.620Z,35.95
2018-02-03T02:45:30.104Z,33.92
2018-02-03T02:47:57.604Z,37.38
2018-02-03T02:50:25.480Z,34.85
2018-02-03T02:52:52.972Z,37.40
2018-02-03T02:55:20.462Z,32.88
2018-02-03T02:57:47.965Z,37.83
2018-02-03T03:00:15.448Z,36.00
2018-02-03T03:02:42.948Z,39.50
2018-02-03T03:05:10.828Z,32.05
2018-02-03T03:07:38.718Z,31.98
2018-02-03T03:10:06.204Z,33.83
2018-02-03T03:12:33.704Z,28.90
2018-02-03T03:15:01.188Z,29.15
2018-02-03T03:17:28.679Z,32.72
2018-02-03T03:19:56.560Z,27.15
2018-02-03T03:22:24.453Z,28.27
2018-02-03T03:24:51.994Z,37.58
2018-02-03T03:27:19.500Z,32.95
2018-02-03T03:29:47.032Z,34.05
2018-02-03T03:32:14.621Z,30.65
2018-02-03T03:34:42.521Z,26.55
2018-02-03T03:37:10.025Z,29.58
2018-02-03T03:39:37.508Z,31.83
2018-02-03T03:42:05.011Z,30.90
2018-02-03T03:44:32.491Z,24.15
2018-02-03T03:47:00.396Z,31.62
2018-02-03T03:49:27.888Z,23.00
2018-02-03T03:51:55.376Z,31.37
2018-02-03T03:54:22.884Z,22.95
2018-02-03T03:56:50.767Z,31.33
2018-02-03T03:59:18.664Z,27.10
2018-02-03T04:01:46.138Z,27.23
2018-02-03T04:04:13.643Z,28.70
2018-02-03T04:06:41.118Z,24.00
2018-02-03T04:09:08.720Z,34.00
2018-02-03T04:11:36.608Z,31.73
2018-02-03T04:14:04.499Z,29.58
2018-02-03T04:16:31.979Z,27.85
2018-02-03T04:18:59.472Z,24.63
2018-02-03T04:21:26.956Z,27.80
2018-02-03T04:23:54.560Z,27.95
2018-02-03T04:26:22.131Z,28.87
2018-02-03T04:28:49.623Z,25.33
2018-02-03T04:31:17.588Z,27.00
2018-02-03T04:33:45.576Z,27.92
2018-02-03T04:36:13.547Z,28.42
2018-02-03T04:38:41.048Z,33.40
2018-02-03T04:41:08.586Z,34.97
2018-02-03T04:43:36.092Z,45.03
2018-02-03T04:46:03.572Z,46.33
2018-02-03T04:48:31.104Z,40.90
2018-02-03T04:50:58.589Z,49.33
2018-02-03T04:53:26.487Z,45.38
2018-02-03T04:55:53.976Z,44.42
2018-02-03T04:58:21.495Z,44.13
2018-02-03T05:00:48.975Z,44.88
2018-02-03T05:03:16.881Z,50.85
2018-02-03T05:05:44.364Z,41.10
2018-02-03T05:08:11.864Z,48.87
2018-02-03T05:10:39.356Z,48.10
2018-02-03T05:13:06.928Z,51.67
2018-02-03T05:15:34.433Z,38.95
2018-02-03T05:18:01.916Z,40.60
2018-02-03T05:20:29.419Z,40.10
2018-02-03T05:22:56.903Z,32.20
2018-02-03T05:25:24.405Z,34.17
2018-02-03T05:27:51.887Z,36.88
2018-02-03T05:30:19.379Z,40.78
2018-02-03T05:32:46.855Z,29.52
2018-02-03T05:35:14.356Z,28.50
2018-02-03T05:37:41.838Z,27.20
2018-02-03T05:40:09.732Z,30.30
2018-02-03T05:42:37.610Z,27.73
2018-02-03T05:45:09.124Z,29.30
2018-02-03T05:47:36.607Z,27.33
2018-02-03T05:50:04.107Z,30.77
2018-02-03T05:52:31.989Z,31.40
2018-02-03T05:54:59.879Z,27.95
2018-02-03T05:57:27.839Z,31.12
2018-02-03T05:59:55.411Z,23.17
2018-02-03T06:02:22.900Z,27.20
2018-02-03T06:04:50.796Z,27.70
2018-02-03T06:07:18.276Z,27.55
2018-02-03T06:09:45.776Z,26.33
2018-02-03T06:12:13.250Z,26.73
2018-02-03T06:14:40.756Z,28.70
2018-02-03T06:17:08.633Z,33.35
2018-02-03T06:19:36.528Z,29.35
2018-02-03T06:22:04.071Z,33.78
2018-02-03T06:24:31.577Z,26.90
2018-02-03T06:26:59.060Z,30.10
2018-02-03T06:29:26.591Z,30.33
2018-02-03T06:31:54.467Z,28.67
2018-02-03T06:34:21.972Z,23.08
2018-02-03T06:36:49.461Z,28.15
2018-02-03T06:39:16.952Z,32.22
2018-02-03T06:41:44.451Z,25.75
2018-02-03T06:44:11.936Z,25.12
2018-02-03T06:46:39.832Z,27.00
2018-02-03T06:49:07.312Z,30.02
2018-02-03T06:51:34.806Z,30.80
2018-02-03T06:54:02.288Z,32.15
2018-02-03T06:56:29.783Z,32.38
2018-02-03T06:58:57.268Z,38.80
2018-02-03T07:01:25.167Z,30.65
2018-02-03T07:03:52.652Z,34.08
2018-02-03T07:06:20.152Z,32.65
2018-02-03T07:08:47.631Z,32.15
2018-02-03T07:11:15.131Z,35.17
2018-02-03T07:13:43.002Z,35.15
2018-02-03T07:16:10.900Z,34.55
2018-02-03T07:18:38.384Z,39.15
2018-02-03T07:21:05.892Z,42.35
2018-02-03T07:23:33.377Z,40.10
2018-02-03T07:26:00.870Z,44.95
2018-02-03T07:28:28.748Z,34.75
2018-02-03T07:30:56.638Z,38.15
2018-02-03T07:33:24.521Z,31.10
2018-02-03T07:35:52.024Z,35.90
2018-02-03T07:38:19.513Z,38.28
2018-02-03T07:40:47.003Z,32.80
2018-02-03T07:43:14.484Z,32.05
2018-02-03T07:45:42.384Z,27.62
2018-02-03T07:48:09.932Z,32.25
2018-02-03T07:50:37.824Z,30.62
2018-02-03T07:53:05.704Z,29.58
2018-02-03T07:55:33.677Z,37.50
2018-02-03T07:58:01.643Z,41.63
2018-02-03T08:00:29.157Z,50.90
2018-02-03T08:02:56.640Z,36.05
2018-02-03T08:05:24.124Z,44.83
2018-02-03T08:07:51.624Z,51.78
2018-02-03T08:10:19.204Z,55.65
2018-02-03T08:12:46.708Z,59.50
2018-02-03T08:15:14.182Z,60.55
2018-02-03T08:17:41.684Z,57.45
2018-02-03T08:20:09.163Z,50.47
2018-02-03T08:22:36.863Z,55.40
2018-02-03T08:25:04.349Z,55.30
2018-02-03T08:27:32.312Z,41.75
2018-02-03T08:29:59.878Z,50.92
2018-02-03T08:32:27.382Z,40.40
2018-02-03T08:34:54.860Z,47.30
2018-02-03T08:37:22.364Z,45.50
2018-02-03T08:39:49.859Z,42.20
2018-02-03T08:42:17.358Z,22.75
2018-02-03T08:44:45.320Z,26.05
2018-02-03T08:47:12.829Z,28.55
2018-02-03T08:49:40.311Z,31.73
2018-02-03T08:52:07.812Z,26.45
2018-02-03T08:54:35.304Z,30.65
2018-02-03T08:57:02.807Z,30.50
2018-02-03T08:59:30.380Z,29.48
2018-02-03T09:01:57.880Z,31.50
2018-02-03T09:04:25.361Z,29.85
2018-02-03T09:06:52.950Z,32.70
2018-02-03T09:09:20.533Z,31.25
2018-02-03T09:12:00.056Z,24.77
2018-02-03T09:14:27.530Z,30.17
2018-02-03T09:16:55.132Z,28.17
2018-02-03T09:19:23.016Z,35.17
2018-02-03T09:21:50.916Z,33.05
2018-02-03T09:24:18.396Z,31.33
2018-02-03T09:26:45.891Z,27.02
2018-02-03T09:29:13.395Z,32.15
2018-02-03T09:31:40.962Z,34.38
2018-02-03T09:34:08.544Z,38.47
2018-02-03T09:36:36.028Z,35.72
2018-02-03T09:39:03.924Z,33.85
2018-02-03T09:41:31.468Z,26.73
2018-02-03T09:43:58.963Z,32.58
2018-02-03T09:46:26.439Z,28.92
2018-02-03T09:48:53.947Z,26.12
2018-02-03T09:51:21.423Z,31.75
2018-02-03T09:53:48.924Z,30.02
2018-02-03T09:56:16.816Z,30.17
2018-02-03T09:58:44.706Z,26.92
2018-02-03T10:01:12.182Z,24.95
2018-02-03T10:03:39.684Z,29.37
2018-02-03T10:06:07.164Z,25.12
2018-02-03T10:08:34.666Z,29.20
2018-02-03T10:11:02.585Z,29.75
2018-02-03T10:13:30.536Z,34.80
2018-02-03T10:15:58.513Z,36.05
2018-02-03T10:18:26.412Z,29.77
2018-02-03T10:20:53.887Z,34.97
2018-02-03T10:23:21.388Z,29.33
2018-02-03T10:25:48.867Z,25.42
2018-02-03T10:28:16.364Z,25.17
2018-02-03T10:30:43.843Z,20.45
2018-02-03T10:33:11.731Z,25.08
2018-02-03T10:35:39.611Z,22.95
2018-02-03T10:38:07.503Z,27.00
2018-02-03T10:40:35.044Z,22.40
2018-02-03T10:43:02.582Z,27.02
2018-02-03T10:45:30.080Z,24.67
2018-02-03T10:47:57.656Z,22.08
2018-02-03T10:50:25.545Z,28.77
2018-02-03T10:52:53.514Z,30.50
2018-02-03T10:55:20.990Z,25.75
2018-02-03T10:57:48.470Z,24.37
2018-02-03T11:00:16.363Z,22.90
2018-02-03T11:02:43.838Z,23.20
2018-02-03T11:05:11.335Z,34.03
2018-02-03T11:07:38.819Z,26.23
2018-02-03T11:10:06.324Z,39.10
2018-02-03T11:12:34.204Z,30.50
2018-02-03T11:15:02.111Z,32.33
2018-02-03T11:17:29.596Z,27.98
2018-02-03T11:19:57.110Z,32.20
2018-02-03T11:22:24.592Z,27.92
2018-02-03T11:24:52.096Z,22.27
2018-02-03T11:27:19.580Z,30.58
2018-02-03T11:29:47.091Z,30.48
2018-02-03T11:32:14.571Z,27.35
2018-02-03T11:34:42.156Z,30.15
2018-02-03T11:37:10.042Z,27.00
2018-02-03T11:39:37.936Z,28.62
2018-02-03T11:42:05.428Z,22.00
2018-02-03T11:44:32.941Z,25.90
2018-02-03T11:47:00.520Z,26.77
2018-02-03T11:49:28.024Z,27.02
2018-02-03T11:51:55.508Z,26.20
2018-02-03T11:54:23.009Z,25.52
2018-02-03T11:56:50.499Z,31.20
2018-02-03T11:59:18.071Z,23.25
2018-02-03T12:01:45.556Z,20.58
2018-02-03T12:04:13.450Z,81.90
2018-02-03T12:06:40.932Z,23.52
2018-02-03T12:09:08.431Z,31.52
2018-02-03T12:11:35.908Z,25.95
2018-02-03T12:14:03.412Z,22.05
2018-02-03T12:16:31.388Z,24.08
2018-02-03T12:18:58.887Z,18.12
2018-02-03T12:21:26.369Z,18.80
2018-02-03T12:23:53.902Z,14.00
2018-02-03T12:26:22.305Z,13.15
2018-02-03T12:28:50.180Z,12.57
2018-02-03T12:31:18.071Z,16.35
2018-02-03T12:33:45.989Z,16.50
2018-02-03T12:36:13.484Z,10.73
2018-02-03T12:38:40.968Z,28.10
2018-02-03T12:41:08.459Z,15.68
2018-02-03T12:43:36.428Z,13.60
2018-02-03T12:46:03.928Z,13.80
2018-02-03T12:48:31.408Z,16.90
2018-02-03T12:50:58.930Z,16.30
2018-02-03T12:53:26.512Z,27.77
2018-02-03T12:55:54.012Z,28.60
2018-02-03T12:58:21.496Z,26.30
2018-02-03T13:00:49.032Z,23.55
2018-02-03T13:03:16.908Z,15.00
2018-02-03T13:05:44.800Z,11.68
2018-02-03T13:08:12.672Z,8.02
2018-02-03T13:10:40.565Z,9.88
2018-02-03T13:13:08.064Z,11.35
2018-02-03T13:15:35.560Z,8.32
2018-02-03T13:18:03.036Z,4.70
2018-02-03T13:20:30.533Z,8.60
2018-02-03T13:22:58.013Z,6.78
2018-02-03T13:25:25.561Z,6.32
2018-02-03T13:27:53.435Z,5.30
2018-02-03T13:30:20.933Z,5.03
2018-02-03T13:32:48.804Z,7.80
2018-02-03T13:35:16.780Z,5.93
2018-02-03T13:37:44.647Z,5.30
2018-02-03T13:40:12.392Z,5.90
2018-02-03T13:42:39.876Z,6.85
2018-02-03T13:45:07.356Z,4.60
2018-02-03T13:47:34.943Z,15.50
2018-02-03T13:50:02.516Z,5.05
2018-02-03T13:52:30.017Z,3.90
2018-02-03T13:54:57.491Z,5.85
2018-02-03T13:57:24.980Z,5.30
2018-02-03T13:59:52.456Z,6.90
2018-02-03T14:02:20.330Z,6.75
2018-02-03T14:04:47.812Z,7.75
2018-02-03T14:07:15.323Z,10.82
2018-02-03T14:09:43.196Z,7.78
2018-02-03T14:12:10.686Z,5.95
2018-02-03T14:14:38.556Z,7.90
2018-02-03T14:17:06.531Z,7.43
2018-02-03T14:19:34.407Z,7.97
2018-02-03T14:22:01.984Z,12.15
2018-02-03T14:24:35.520Z,7.50
2018-02-03T14:27:03.012Z,7.82
2018-02-03T14:29:30.491Z,6.57
2018-02-03T14:31:58.024Z,6.00
2018-02-03T14:34:25.896Z,5.97
2018-02-03T14:36:53.793Z,11.32
2018-02-03T14:39:21.341Z,8.18
2018-02-03T14:41:49.320Z,9.50
2018-02-03T14:44:16.887Z,8.98
2018-02-03T14:46:44.385Z,12.50
2018-02-03T14:49:11.868Z,11.27
2018-02-03T14:51:39.369Z,10.82
2018-02-03T14:54:06.856Z,10.05
2018-02-03T14:56:34.357Z,13.13
2018-02-03T14:59:02.227Z,10.65
2018-02-03T15:01:30.578Z,13.23
2018-02-03T15:03:58.060Z,12.95
2018-02-03T15:06:25.656Z,11.85
2018-02-03T15:08:53.130Z,12.45
2018-02-03T15:11:20.628Z,17.08
2018-02-03T15:13:48.108Z,9.85
2018-02-03T15:16:15.609Z,13.80
2018-02-03T15:18:43.107Z,12.32
2018-02-03T15:21:10.588Z,13.30
2018-02-03T15:23:38.481Z,10.23
2018-02-03T15:26:05.972Z,18.85
2018-02-03T15:28:33.500Z,13.70
2018-02-03T15:31:00.980Z,15.98
2018-02-03T15:33:28.471Z,11.32
2018-02-03T15:35:55.942Z,14.57
2018-02-03T15:38:23.474Z,12.82
2018-02-03T15:40:50.950Z,11.07
2018-02-03T15:43:18.449Z,12.82
2018-02-03T15:45:45.932Z,13.30
2018-02-03T15:48:13.422Z,14.32
2018-02-03T15:50:40.904Z,18.83
2018-02-03T15:53:08.400Z,15.93
2018-02-03T15:55:35.871Z,12.73
2018-02-03T15:58:03.363Z,17.90
2018-02-03T16:00:31.243Z,13.50
2018-02-03T16:02:59.151Z,15.50
2018-02-03T16:05:26.675Z,15.90
2018-02-03T16:07:54.172Z,15.88
2018-02-03T16:10:21.710Z,15.52
2018-02-03T16:12:49.209Z,12.30
2018-02-03T16:15:17.088Z,14.43
2018-02-03T16:17:45.043Z,12.45
2018-02-03T16:20:12.524Z,14.68
2018-02-03T16:22:40.051Z,12.45
2018-02-03T16:25:07.528Z,16.30
2018-02-03T16:27:35.027Z,12.52
2018-02-03T16:30:02.521Z,14.20
2018-02-03T16:32:30.072Z,15.85
2018-02-03T16:34:57.547Z,20.27
2018-02-03T16:37:25.421Z,9.20
2018-02-03T16:39:52.917Z,17.67
2018-02-03T16:42:20.792Z,10.23
2018-02-03T16:44:48.699Z,12.85
2018-02-03T16:47:16.183Z,12.50
2018-02-03T16:49:43.680Z,16.58
2018-02-03T16:52:11.154Z,12.02
2018-02-03T16:54:38.743Z,13.38
2018-02-03T16:57:06.624Z,18.30
2018-02-03T16:59:34.139Z,71.65
2018-02-03T17:02:01.661Z,41.25
2018-02-03T17:04:29.259Z,18.35
2018-02-03T17:06:56.739Z,16.00
2018-02-03T17:09:24.279Z,13.00
2018-02-03T17:11:51.741Z,15.35
2018-02-03T17:14:19.242Z,13.45
2018-02-03T17:16:46.727Z,13.43
2018-02-03T17:19:14.272Z,16.35
2018-02-03T17:21:42.234Z,12.70
2018-02-03T17:24:09.732Z,16.12
2018-02-03T17:26:37.212Z,14.45
2018-02-03T17:29:04.708Z,16.65
2018-02-03T17:31:32.192Z,18.52
2018-02-03T17:33:59.713Z,16.37
2018-02-03T17:36:33.496Z,14.98
2018-02-03T17:39:03.936Z,13.73
2018-02-03T17:41:31.424Z,16.00
2018-02-03T17:43:59.436Z,15.82
2018-02-03T17:46:32.563Z,18.12
2018-02-03T17:49:00.078Z,16.17
2018-02-03T17:51:27.648Z,16.37
2018-02-03T17:53:55.220Z,14.23
2018-02-03T17:56:28.477Z,21.15
2018-02-03T17:58:55.966Z,19.45
2018-02-03T18:01:23.495Z,18.05
2018-02-03T18:03:50.996Z,15.60
2018-02-03T18:06:18.500Z,15.55
2018-02-03T18:08:46.000Z,19.95
2018-02-03T18:11:13.916Z,15.55
2018-02-03T18:13:41.395Z,21.85
2018-02-03T18:16:08.909Z,17.35
2018-02-03T18:18:36.889Z,20.40
2018-02-03T18:21:04.856Z,14.73
2018-02-03T18:23:32.340Z,19.37
2018-02-03T18:26:00.228Z,17.35
2018-02-03T18:28:28.111Z,18.90
2018-02-03T18:30:55.999Z,15.77
2018-02-03T18:33:23.839Z,20.27
2018-02-03T18:35:51.418Z,16.87
2018-02-03T18:38:18.895Z,20.05
2018-02-03T18:40:46.396Z,16.48
2018-02-03T18:43:13.887Z,16.05
2018-02-03T18:45:46.340Z,18.83
2018-02-03T18:48:14.234Z,21.77
2018-02-03T18:50:41.780Z,16.62
2018-02-03T18:53:09.255Z,19.70
2018-02-03T18:55:37.149Z,14.82
2018-02-03T18:58:04.626Z,17.48
2018-02-03T19:00:32.127Z,24.10
2018-02-03T19:02:59.603Z,20.90
2018-02-03T19:05:27.103Z,14.30
2018-02-03T19:07:54.590Z,20.30
2018-02-03T19:10:22.563Z,18.52
2018-02-03T19:12:50.048Z,17.17
2018-02-03T19:15:17.961Z,18.15
2018-02-03T19:17:45.509Z,15.15
2018-02-03T19:20:13.002Z,20.25
2018-02-03T19:22:40.508Z,19.17
2018-02-03T19:25:08.104Z,17.33
2018-02-03T19:27:35.994Z,18.67
2018-02-03T19:30:03.985Z,16.05
2018-02-03T19:32:31.529Z,15.48
2018-02-03T19:34:59.122Z,14.30
2018-02-03T19:37:26.675Z,17.05
2018-02-03T19:39:54.239Z,21.25
2018-02-03T19:42:21.730Z,18.75
2018-02-03T19:44:49.608Z,20.15
2018-02-03T19:47:17.503Z,20.65
2018-02-03T19:49:45.053Z,22.75
2018-02-03T19:52:12.952Z,14.80
2018-02-03T19:54:40.460Z,18.77
2018-02-03T19:57:08.004Z,20.33
2018-02-03T19:59:35.504Z,21.48
2018-02-03T20:02:02.995Z,20.67
2018-02-03T20:04:30.555Z,18.20
2018-02-03T20:06:58.156Z,18.52
2018-02-03T20:09:25.732Z,18.85
2018-02-03T20:11:53.228Z,21.17
2018-02-03T20:14:20.724Z,18.67
2018-02-03T20:16:48.224Z,23.20
2018-02-03T20:19:15.698Z,20.20
2018-02-03T20:21:43.328Z,22.15
2018-02-03T20:24:10.820Z,23.77
2018-02-03T20:26:38.591Z,20.75
2018-02-03T20:29:06.070Z,23.17
2018-02-03T20:31:33.706Z,21.33
2018-02-03T20:34:01.182Z,23.33
2018-02-03T20:36:28.836Z,20.62
2018-02-03T20:38:56.329Z,23.20
2018-02-03T20:41:23.930Z,22.20
2018-02-03T20:43:51.416Z,18.83
2018-02-03T20:46:19.036Z,21.87
2018-02-03T20:48:46.551Z,22.83
2018-02-03T20:51:14.052Z,20.65
2018-02-03T20:53:41.575Z,19.42
2018-02-03T20:56:09.092Z,19.70
2018-02-03T20:58:36.670Z,21.25
2018-02-03T21:01:04.576Z,17.20
2018-02-03T21:03:32.120Z,17.77
2018-02-03T21:05:59.751Z,21.00
2018-02-03T21:08:27.252Z,19.30
2018-02-03T21:10:54.862Z,22.73
2018-02-03T21:13:22.408Z,18.45
2018-02-03T21:15:50.009Z,20.83
2018-02-03T21:18:17.552Z,20.73
2018-02-03T21:20:45.042Z,23.10
2018-02-03T21:23:12.592Z,24.05
2018-02-03T21:25:40.084Z,20.83
2018-02-03T21:28:07.584Z,19.70
2018-02-03T21:30:35.072Z,24.90
2018-02-03T21:33:02.573Z,17.58
2018-02-03T21:35:30.064Z,22.40
2018-02-03T21:37:58.024Z,21.75
2018-02-03T21:40:25.512Z,25.45
2018-02-03T21:42:53.523Z,23.25
2018-02-03T21:45:21.096Z,22.05
2018-02-03T21:47:48.596Z,23.95
2018-02-03T21:50:16.084Z,25.65
2018-02-03T21:52:43.667Z,24.90
2018-02-03T21:55:11.245Z,28.90
2018-02-03T21:57:39.148Z,34.95
2018-02-03T22:00:06.628Z,30.05
2018-02-03T22:02:34.128Z,29.95
2018-02-03T22:05:01.607Z,34.33
2018-02-03T22:07:29.195Z,35.30
2018-02-03T22:09:56.679Z,37.00
2018-02-03T22:12:24.596Z,35.03
2018-02-03T22:14:52.075Z,40.10
2018-02-03T22:17:19.584Z,35.95
2018-02-03T22:19:47.080Z,36.65
2018-02-03T22:22:15.053Z,33.22
2018-02-03T22:24:42.927Z,42.35
2018-02-03T22:27:10.436Z,40.30
2018-02-03T22:29:37.918Z,37.97
2018-02-03T22:32:05.430Z,41.53
2018-02-03T22:34:33.012Z,39.40
2018-02-03T22:37:00.487Z,42.45
2018-02-03T22:39:28.392Z,43.83
2018-02-03T22:41:56.036Z,43.50
2018-02-03T22:44:23.606Z,44.75
2018-02-03T22:46:51.092Z,45.90
2018-02-03T22:49:18.982Z,47.95
2018-02-03T22:51:46.468Z,46.33
2018-02-03T22:54:13.968Z,48.70
2018-02-03T22:56:41.451Z,50.30
2018-02-03T22:59:09.352Z,48.67
2018-02-03T23:01:37.240Z,52.10
2018-02-03T23:04:05.136Z,53.13
2018-02-03T23:06:32.619Z,58.17
2018-02-03T23:09:00.148Z,51.67
2018-02-03T23:11:27.634Z,49.85
2018-02-03T23:13:55.528Z,57.03
2018-02-03T23:16:23.020Z,62.53
2018-02-03T23:18:50.669Z,58.20
2018-02-03T23:21:18.152Z,62.47
2018-02-03T23:23:45.651Z,59.22
2018-02-03T23:26:13.131Z,60.95
2018-02-03T23:28:40.736Z,57.83
2018-02-03T23:31:08.611Z,67.00
2018-02-03T23:33:36.112Z,57.40
2018-02-03T23:36:03.596Z,53.53
2018-02-03T23:38:31.086Z,55.58
2018-02-03T23:40:58.567Z,53.05
2018-02-03T23:43:26.063Z,58.80
2018-02-03T23:45:53.939Z,59.63
2018-02-03T23:48:21.424Z,52.33
2018-02-03T23:50:49.316Z,56.60
2018-02-03T23:53:16.795Z,60.50
2018-02-03T23:55:44.295Z,49.33
2018-02-03T23:58:11.779Z,60.03
